中部国際空港の過去48時間の天気

中部国際空港 (Chubu Centrair International)

現在時刻: 1/22 03:09 JST (1/21 18:09 UTC) 以下の時間は現地時間です。

過去48時間のMETAR気象情報
時間 風向 風速(m/s) 視程 気温(℃) 湿度(%) 気圧(hPa) 天気現象
22 02:30 西 4 10km以上 6 81 1018
22 02:00 北北西 4 10km以上 5 70 1018
22 01:30 北北西 5 10km以上 6 70 1018
22 01:00 北北西 5 10km以上 6 70 1018
22 00:30 北北西 6 10km以上 7 61 1018
22 00:00 北北西 5 10km以上 6 65 1018
21 23:30 北西 6 10km以上 7 70 1018
21 23:00 西北西 7 10km以上 8 66 1019
21 22:30 北西 8 10km以上 8 66 1019
21 22:00 北西 8 10km以上 8 66 1019
21 21:30 北北西 7 10km以上 8 66 1019
21 21:00 北西 8 10km以上 8 66 1019
21 20:30 北西 8 10km以上 8 71 1019
21 20:00 北北西 8 10km以上 8 61 1019
21 19:30 北北西 9 10km以上 8 66 1019
21 19:00 北西 7 10km以上 8 71 1019
21 18:30 北西 10 10km以上 9 71 1019
21 18:00 北西 8 10km以上 9 71 1019
21 17:30 北北西 9 10km以上 9 71 1018
21 17:00 北西 10 10km以上 9 71 1018
21 16:30 西北西 13 10km以上 9 71 1017
21 16:00 北西 8 10km以上 10 62 1017
21 15:30 西北西 6 10km以上 10 58 1017
21 15:00 西北西 8 10km以上 11 58 1017
21 14:30 西北西 9 10km以上 11 58 1016
21 14:00 北西 8 10km以上 11 54 1017
21 13:30 北西 6 10km以上 11 54 1017
21 13:00 西 3 10km以上 11 50 1017
21 12:30 西 2 10km以上 11 47 1017
21 12:00 西 5 10km以上 10 54 1017
21 11:30 西 4 10km以上 10 54 1018
21 11:00 西 6 10km以上 10 58 1018
21 10:30 西 7 10km以上 9 62 1019
21 10:00 西 8 10km以上 8 71 1019
21 09:30 西 8 10km以上 8 76 1019
21 09:00 西 8 10km以上 8 76 1019
21 08:30 西 7 10km以上 7 76 1018
21 08:00 西北西 7 10km以上 8 71 1018
21 07:30 西北西 7 10km以上 7 76 1018
21 07:00 西北西 7 10km以上 8 76 1017
21 06:30 北西 6 10km以上 7 76 1018
21 06:00 西北西 6 10km以上 7 81 1017
21 05:30 西北西 6 10km以上 7 81 1017
21 05:00 西北西 6 10km以上 7 70 1017
21 04:30 西北西 6 10km以上 7 76 1017
RJGG 211730Z 28008KT 9999 FEW025 BKN/// 06/03 Q1018 NOSIG
RJGG 211700Z 34008KT 9999 FEW025 SCT/// 05/M00 Q1018 NOSIG
RJGG 211630Z 33010KT 9999 FEW025 06/01 Q1018 NOSIG
RJGG 211600Z 34010KT 9999 FEW025 SCT/// 06/01 Q1018 NOSIG
RJGG 211530Z 33011KT 9999 FEW025 SCT/// 07/00 Q1018 NOSIG
RJGG 211500Z 34010KT 9999 FEW025 BKN/// 06/M00 Q1018 NOSIG
RJGG 211430Z 32011KT 9999 FEW025 BKN/// 07/02 Q1018 NOSIG
RJGG 211400Z 30013KT 9999 FEW025 BKN/// 08/02 Q1019 NOSIG
RJGG 211330Z 31015KT 9999 FEW025 BKN/// 08/02 Q1019 NOSIG
RJGG 211300Z 32015KT 9999 FEW025 BKN/// 08/02 Q1019 NOSIG
RJGG 211230Z 33014KT 9999 FEW025 BKN/// 08/02 Q1019 NOSIG
RJGG 211200Z 31016KT 9999 FEW025 BKN/// 08/02 Q1019 NOSIG
RJGG 211130Z 32015KT 9999 FEW025 BKN/// 08/03 Q1019 NOSIG
RJGG 211100Z 33015KT 9999 FEW025 BKN/// 08/01 Q1019 NOSIG
RJGG 211030Z 33018KT 9999 FEW025 SCT/// 08/02 Q1019 NOSIG
RJGG 211000Z 32014KT 9999 FEW025 SCT/// 08/03 Q1019 NOSIG
RJGG 210930Z 32019KT 9999 FEW025 SCT/// 09/04 Q1019 NOSIG
RJGG 210900Z 32016KT 9999 FEW025 SCT/// 09/04 Q1019 NOSIG
RJGG 210830Z 33017KT 9999 FEW025 SCT040 09/04 Q1018 NOSIG
RJGG 210800Z 31020KT 9999 FEW025 SCT/// 09/04 Q1018 NOSIG
RJGG 210730Z 30025KT 9999 FEW025 09/04 Q1017 NOSIG
RJGG 210700Z 31016KT 9999 SCT050 10/03 Q1017 NOSIG
RJGG 210630Z 30012KT 9999 FEW050 10/02 Q1017 BECMG 32022KT
RJGG 210600Z 30015KT 9999 FEW050 11/03 Q1017 NOSIG
RJGG 210530Z 30018KT 9999 FEW050 11/03 Q1016 NOSIG
RJGG 210500Z 31016KT 9999 FEW050 11/02 Q1017 NOSIG
RJGG 210430Z 31012KT 9999 FEW050 11/02 Q1017 BECMG 32022KT
RJGG 210400Z 27005KT 9999 FEW050 11/01 Q1017 BECMG 32016KT
RJGG 210330Z 28003KT 9999 FEW030 SCT050 BKN/// 11/00 Q1017 BECMG 32016KT
RJGG 210300Z 27010KT 9999 FEW030 BKN/// 10/01 Q1017 NOSIG
RJGG 210230Z 27007KT 9999 FEW030 BKN/// 10/01 Q1018 BECMG 32017KT
RJGG 210200Z 27011KT 9999 FEW030 BKN/// 10/02 Q1018 NOSIG
RJGG 210130Z 28013KT 9999 FEW045 09/02 Q1019 NOSIG
RJGG 210100Z 28015KT 9999 FEW045 08/03 Q1019 NOSIG
RJGG 210030Z 28015KT 9999 FEW045 08/04 Q1019 NOSIG
RJGG 210000Z 28015KT 9999 FEW045 08/04 Q1019 NOSIG
RJGG 202330Z 28014KT 9999 FEW030 07/03 Q1018 NOSIG
RJGG 202300Z 30013KT 9999 FEW030 08/03 Q1018 NOSIG
RJGG 202230Z 30014KT 9999 FEW030 07/03 Q1018 NOSIG
RJGG 202200Z 30014KT 9999 FEW040 08/04 Q1017 NOSIG
RJGG 202130Z 31011KT 9999 FEW040 07/03 Q1018 NOSIG
RJGG 202100Z 30011KT 9999 FEW040 07/04 Q1017 NOSIG
RJGG 202030Z 29012KT CAVOK 07/04 Q1017 NOSIG
RJGG 202000Z 29011KT CAVOK 07/02 Q1017 NOSIG
RJGG 201930Z 29012KT CAVOK 07/03 Q1017 NOSIG